PGUM/GUM METAR and TAF weather

Enter ICAO airport designator
Station Type Date Time Source
PGUM METAR 2020/09/19 05:05 UTC NOAA

PGUM 190505Z VRB05KT 10SM BKN028 BKN034 31/24 A2979 RMK AO2 T03110244


Station Type Date Time Source
PGUM Decoded METAR 2020/09/19 05:05 UTC NOAA

Agana, Guam International Airport, GU, United States (PGUM) 13-29N 144-48E
Sep 19, 2020 - 01:05 AM EDT / 2020.09.19 0505 UTC
Wind: Variable at 6 MPH (5 KT):0
Visibility: 10 mile(s):0
Sky conditions: mostly cloudy
Temperature: 88.0 F (31.1 C)
Heat index: 98.6 F (37.0 C):1
Dew Point: 75.9 F (24.4 C)
Relative Humidity: 67%
Pressure (altimeter): 29.79 in. Hg (1008 hPa)
ob: PGUM 190505Z VRB05KT 10SM BKN028 BKN034 31/24 A2979 RMK AO2 T03110244
cycle: 5

Station Type Date Time Source
PGUM TAF 2020/09/18 23:45 UTC NOAA

TAF PGUM 182239Z 1823/1924 03011KT P6SM VCSH SCT014 BKN040 OVC100
TEMPO 1823/1824 2SM +SHRA BKN012 OVC020
FM190000 05010KT P6SM VCSH SCT016 SCT040 BKN120

Example: see airport list